createdAt,value
2023-04-18T00:02:23.232Z,9.62
2023-04-18T00:04:50.491Z,9.59
2023-04-18T00:07:17.618Z,9.59
2023-04-18T00:09:44.666Z,9.59
2023-04-18T00:12:11.370Z,9.61
2023-04-18T00:14:38.028Z,9.58
2023-04-18T00:17:08.809Z,9.59
2023-04-18T00:19:37.295Z,9.53
2023-04-18T00:22:03.709Z,9.52
2023-04-18T00:24:30.153Z,9.44
2023-04-18T00:26:57.143Z,9.30
2023-04-18T00:29:23.680Z,9.24
2023-04-18T00:31:50.136Z,9.23
2023-04-18T00:34:16.484Z,9.23
2023-04-18T00:36:42.920Z,9.23
2023-04-18T00:39:09.338Z,9.16
2023-04-18T00:41:35.722Z,9.09
2023-04-18T00:44:02.132Z,9.04
2023-04-18T00:46:28.619Z,8.97
2023-04-18T00:48:55.519Z,8.98
2023-04-18T00:51:22.018Z,9.02
2023-04-18T00:53:48.723Z,9.04
2023-04-18T00:56:15.575Z,9.09
2023-04-18T00:58:42.038Z,9.11
2023-04-18T01:01:09.435Z,9.09
2023-04-18T01:03:37.418Z,9.10
2023-04-18T01:06:04.260Z,9.04
2023-04-18T01:08:30.810Z,8.93
2023-04-18T01:10:57.334Z,8.91
2023-04-18T01:13:23.881Z,8.85
2023-04-18T01:15:51.703Z,8.90
2023-04-18T01:18:19.057Z,8.93
2023-04-18T01:20:48.153Z,8.86
2023-04-18T01:23:15.790Z,8.81
2023-04-18T01:25:42.880Z,8.81
2023-04-18T01:28:09.994Z,8.74
2023-04-18T01:30:36.760Z,8.75
2023-04-18T01:33:04.497Z,8.75
2023-04-18T01:35:31.902Z,8.67
2023-04-18T01:37:58.951Z,8.67
2023-04-18T01:40:25.428Z,8.65
2023-04-18T01:42:52.113Z,8.66
2023-04-18T01:45:20.069Z,8.63
2023-04-18T01:47:47.043Z,8.57
2023-04-18T01:50:13.943Z,8.45
2023-04-18T01:52:40.409Z,8.45
2023-04-18T01:55:07.137Z,8.43
2023-04-18T01:57:36.598Z,8.37
2023-04-18T02:00:06.914Z,8.41
2023-04-18T02:02:33.426Z,8.43
2023-04-18T02:04:59.983Z,8.45
2023-04-18T02:07:26.616Z,8.47
2023-04-18T02:09:53.005Z,8.45
2023-04-18T02:12:19.387Z,8.46
2023-04-18T02:14:45.709Z,8.44
2023-04-18T02:17:12.092Z,8.42
2023-04-18T02:19:38.470Z,8.35
2023-04-18T02:22:04.853Z,8.38
2023-04-18T02:24:31.296Z,8.37
2023-04-18T02:26:58.192Z,8.30
2023-04-18T02:29:24.711Z,8.31
2023-04-18T02:31:51.166Z,8.31
2023-04-18T02:34:17.587Z,8.33
2023-04-18T02:36:43.936Z,8.33
2023-04-18T02:39:10.416Z,8.36
2023-04-18T02:41:37.941Z,8.33
2023-04-18T02:44:04.362Z,8.29
2023-04-18T02:46:30.919Z,8.18
2023-04-18T02:48:57.468Z,8.20
2023-04-18T02:51:24.040Z,8.17
2023-04-18T02:53:54.898Z,8.14
2023-04-18T02:56:22.227Z,8.11
2023-04-18T02:58:49.096Z,8.05
2023-04-18T03:01:17.642Z,8.04
2023-04-18T03:03:44.241Z,8.07
2023-04-18T03:06:10.591Z,8.02
2023-04-18T03:08:36.961Z,8.01
2023-04-18T03:11:03.390Z,8.00
2023-04-18T03:13:29.838Z,8.00
2023-04-18T03:15:56.305Z,8.02
2023-04-18T03:18:22.782Z,7.92
2023-04-18T03:20:49.144Z,7.84
2023-04-18T03:23:15.537Z,7.79
2023-04-18T03:25:41.935Z,7.81
2023-04-18T03:28:08.312Z,7.83
2023-04-18T03:30:34.748Z,7.82
2023-04-18T03:33:02.866Z,7.84
2023-04-18T03:35:29.433Z,7.79
2023-04-18T03:37:56.021Z,7.75
2023-04-18T03:40:22.415Z,7.67
2023-04-18T03:42:48.776Z,7.71
2023-04-18T03:45:15.682Z,7.69
2023-04-18T03:47:42.091Z,7.62
2023-04-18T03:50:08.948Z,7.54
2023-04-18T03:52:35.280Z,7.57
2023-04-18T03:55:01.712Z,7.55
2023-04-18T03:57:28.105Z,7.55
2023-04-18T03:59:54.525Z,7.52
2023-04-18T04:02:21.033Z,7.48
2023-04-18T04:04:47.571Z,7.47
2023-04-18T04:07:14.172Z,7.38
2023-04-18T04:09:40.648Z,7.38
2023-04-18T04:12:07.028Z,7.41
2023-04-18T04:14:33.450Z,7.45
2023-04-18T04:16:59.942Z,7.46
2023-04-18T04:19:26.316Z,7.38
2023-04-18T04:21:52.744Z,7.36
2023-04-18T04:24:20.393Z,7.35
2023-04-18T04:26:46.734Z,7.33
2023-04-18T04:29:13.824Z,7.31
2023-04-18T04:31:40.293Z,7.32
2023-04-18T04:34:07.053Z,7.35
2023-04-18T04:36:33.536Z,7.28
2023-04-18T04:38:59.880Z,7.31
2023-04-18T04:41:27.720Z,7.35
2023-04-18T04:43:54.363Z,7.36
2023-04-18T04:46:21.110Z,7.33
2023-04-18T04:48:47.548Z,7.37
2023-04-18T04:51:13.978Z,7.36
2023-04-18T04:53:40.404Z,7.35
2023-04-18T04:56:07.100Z,7.38
2023-04-18T04:58:33.525Z,7.33
2023-04-18T05:00:59.918Z,7.30
2023-04-18T05:03:26.508Z,7.34
2023-04-18T05:05:53.378Z,7.35
2023-04-18T05:08:19.875Z,7.34
2023-04-18T05:10:47.567Z,7.33
2023-04-18T05:13:13.943Z,7.30
2023-04-18T05:15:40.564Z,7.31
2023-04-18T05:18:07.292Z,7.31
2023-04-18T05:20:33.860Z,7.31
2023-04-18T05:23:00.288Z,7.31
2023-04-18T05:25:26.888Z,7.29
2023-04-18T05:27:53.306Z,7.31
2023-04-18T05:30:19.778Z,7.29
2023-04-18T05:32:46.232Z,7.34
2023-04-18T05:35:12.735Z,7.30
2023-04-18T05:37:39.173Z,7.23
2023-04-18T05:40:06.788Z,7.23
2023-04-18T05:42:33.190Z,7.25
2023-04-18T05:44:59.605Z,7.19
2023-04-18T05:47:28.433Z,7.20
2023-04-18T05:49:55.297Z,7.29
2023-04-18T05:52:21.802Z,7.28
2023-04-18T05:54:48.248Z,7.30
2023-04-18T05:57:14.637Z,7.29
2023-04-18T05:59:40.995Z,7.26
2023-04-18T06:02:13.149Z,7.29
2023-04-18T06:04:43.867Z,7.33
2023-04-18T06:07:10.601Z,7.32
2023-04-18T06:09:37.014Z,7.33
2023-04-18T06:12:03.844Z,7.26
2023-04-18T06:14:30.245Z,7.28
2023-04-18T06:16:56.781Z,7.29
2023-04-18T06:19:23.226Z,7.31
2023-04-18T06:21:50.000Z,7.36
2023-04-18T06:24:16.737Z,7.34
2023-04-18T06:26:43.491Z,7.30
2023-04-18T06:29:09.892Z,7.34
2023-04-18T06:31:36.355Z,7.42
2023-04-18T06:34:02.781Z,7.45
2023-04-18T06:36:29.121Z,7.43
2023-04-18T06:38:55.462Z,7.45
2023-04-18T06:41:21.863Z,7.51
2023-04-18T06:44:14.596Z,7.55
2023-04-18T06:46:34.666Z,7.59
2023-04-18T06:49:01.197Z,7.62
2023-04-18T06:51:27.937Z,7.66
2023-04-18T06:53:54.445Z,7.67
2023-04-18T06:56:20.848Z,7.71
2023-04-18T06:58:47.736Z,7.70
2023-04-18T07:01:14.213Z,7.76
2023-04-18T07:03:40.800Z,7.78
2023-04-18T07:06:08.850Z,7.75
2023-04-18T07:08:35.603Z,7.73
2023-04-18T07:11:02.218Z,7.74
2023-04-18T07:13:28.722Z,7.77
2023-04-18T07:15:55.175Z,7.81
2023-04-18T07:18:34.298Z,7.80
2023-04-18T07:21:03.503Z,7.81
2023-04-18T07:23:29.920Z,7.81
2023-04-18T07:25:58.532Z,7.83
2023-04-18T07:28:24.980Z,7.87
2023-04-18T07:30:51.426Z,7.89
2023-04-18T07:33:17.871Z,7.94
2023-04-18T07:35:46.074Z,7.97
2023-04-18T07:38:12.966Z,7.98
2023-04-18T07:40:39.395Z,8.01
2023-04-18T07:43:05.783Z,8.04
2023-04-18T07:45:33.392Z,8.07
2023-04-18T07:47:59.770Z,8.10
2023-04-18T07:50:26.923Z,8.16
2023-04-18T07:52:53.353Z,8.24
2023-04-18T07:55:19.733Z,8.31
2023-04-18T07:57:50.224Z,8.35
2023-04-18T08:00:18.494Z,8.41
2023-04-18T08:02:45.823Z,8.43
2023-04-18T08:05:12.347Z,8.48
2023-04-18T08:07:38.872Z,8.58
2023-04-18T08:10:05.846Z,8.62
2023-04-18T08:12:32.466Z,8.63
2023-04-18T08:14:59.078Z,8.71
2023-04-18T08:17:25.676Z,8.76
2023-04-18T08:19:52.066Z,8.80
2023-04-18T08:22:18.496Z,8.85
2023-04-18T08:25:00.958Z,8.97
2023-04-18T08:27:28.371Z,9.12
2023-04-18T08:29:55.302Z,9.14
2023-04-18T08:32:21.780Z,9.24
2023-04-18T08:34:48.291Z,9.33
2023-04-18T08:37:14.718Z,9.39
2023-04-18T08:39:41.139Z,9.34
2023-04-18T08:42:10.203Z,9.30
2023-04-18T08:44:37.687Z,9.32
2023-04-18T08:47:04.190Z,9.29
2023-04-18T08:49:31.443Z,9.24
2023-04-18T08:52:01.295Z,9.26
2023-04-18T08:54:30.460Z,9.27
2023-04-18T08:57:12.310Z,9.30
2023-04-18T08:59:40.056Z,9.35
2023-04-18T09:02:08.928Z,9.33
2023-04-18T09:04:37.059Z,9.32
2023-04-18T09:07:10.239Z,9.30
2023-04-18T09:09:43.328Z,9.39
2023-04-18T09:12:11.168Z,9.46
2023-04-18T09:14:37.651Z,9.46
2023-04-18T09:17:05.444Z,9.46
2023-04-18T09:19:33.722Z,9.53
2023-04-18T09:22:02.100Z,9.57
2023-04-18T09:24:29.158Z,9.58
2023-04-18T09:26:57.114Z,9.63
2023-04-18T09:29:42.399Z,9.74
2023-04-18T09:32:09.276Z,9.83
2023-04-18T09:34:42.412Z,9.93
2023-04-18T09:37:09.810Z,9.93
2023-04-18T09:39:37.849Z,9.93
2023-04-18T09:42:04.409Z,9.94
2023-04-18T09:44:30.902Z,9.94
2023-04-18T09:46:57.348Z,9.94
2023-04-18T09:49:24.021Z,9.96
2023-04-18T09:51:55.165Z,9.97
2023-04-18T09:54:25.818Z,9.98
2023-04-18T09:56:54.218Z,10.01
2023-04-18T09:59:54.884Z,10.00
2023-04-18T10:02:22.959Z,10.05
2023-04-18T10:04:54.025Z,10.05
2023-04-18T10:07:20.963Z,10.07
2023-04-18T10:09:49.004Z,10.07
2023-04-18T10:12:17.283Z,10.08
2023-04-18T10:14:44.092Z,10.08
2023-04-18T10:17:11.739Z,10.04
2023-04-18T10:19:41.882Z,10.01
2023-04-18T10:22:08.491Z,10.02
2023-04-18T10:24:53.592Z,10.02
2023-04-18T10:27:49.167Z,10.15
2023-04-18T10:30:18.849Z,10.29
2023-04-18T10:32:48.480Z,10.36
2023-04-18T10:35:15.005Z,10.34
2023-04-18T10:37:51.554Z,10.31
2023-04-18T10:40:32.308Z,10.32
2023-04-18T10:42:59.003Z,10.34
2023-04-18T10:45:27.039Z,10.43
2023-04-18T10:48:22.685Z,10.53
2023-04-18T10:51:17.697Z,10.56
2023-04-18T10:53:51.472Z,10.75
2023-04-18T10:56:17.911Z,11.01
2023-04-18T10:58:52.079Z,11.06
2023-04-18T11:01:37.960Z,11.09
2023-04-18T11:04:13.105Z,11.22
2023-04-18T11:06:50.580Z,11.30
2023-04-18T11:09:17.103Z,11.38
2023-04-18T11:11:44.295Z,11.49
2023-04-18T11:14:10.861Z,11.61
2023-04-18T11:16:37.898Z,11.62
2023-04-18T11:19:21.408Z,11.58
2023-04-18T11:21:47.796Z,11.49
2023-04-18T11:24:22.065Z,11.40
2023-04-18T11:26:48.549Z,11.32
2023-04-18T11:29:17.940Z,11.33
2023-04-18T11:31:52.168Z,11.31
2023-04-18T11:34:18.876Z,11.26
2023-04-18T11:36:50.789Z,11.21
2023-04-18T11:39:17.779Z,11.14
2023-04-18T11:41:50.232Z,11.13
2023-04-18T11:44:18.454Z,11.16
2023-04-18T11:46:47.648Z,11.20
2023-04-18T11:49:27.687Z,11.23
2023-04-18T11:51:54.292Z,11.23
2023-04-18T11:54:38.595Z,11.19
2023-04-18T11:57:06.154Z,11.19
2023-04-18T11:59:32.831Z,11.22
2023-04-18T12:02:14.849Z,11.25
2023-04-18T12:04:54.469Z,11.27
2023-04-18T12:07:37.342Z,11.26
2023-04-18T12:10:09.420Z,11.33
2023-04-18T12:12:36.647Z,11.46
2023-04-18T12:15:15.029Z,11.52
2023-04-18T12:17:44.146Z,11.55
2023-04-18T12:20:11.597Z,11.55
2023-04-18T12:22:44.995Z,11.56
2023-04-18T12:25:27.425Z,11.61
2023-04-18T12:28:01.240Z,11.59
2023-04-18T12:30:34.608Z,11.60
2023-04-18T12:33:04.039Z,11.60
2023-04-18T12:35:31.635Z,11.62
2023-04-18T12:38:00.859Z,11.67
2023-04-18T12:40:28.745Z,11.71
2023-04-18T12:42:55.673Z,11.74
2023-04-18T12:45:23.177Z,11.82
2023-04-18T12:47:51.757Z,11.91
2023-04-18T12:50:20.540Z,11.94
2023-04-18T12:52:47.084Z,11.92
2023-04-18T12:55:14.354Z,11.88
2023-04-18T12:57:42.166Z,11.87
2023-04-18T13:00:11.254Z,11.86
2023-04-18T13:02:38.971Z,11.88
2023-04-18T13:05:11.405Z,11.89
2023-04-18T13:07:40.377Z,11.89
2023-04-18T13:10:09.077Z,11.86
2023-04-18T13:12:35.915Z,11.86
2023-04-18T13:15:03.342Z,11.81
2023-04-18T13:17:29.798Z,11.77
2023-04-18T13:19:56.521Z,11.77
2023-04-18T13:22:23.088Z,11.80
2023-04-18T13:24:49.580Z,11.84
2023-04-18T13:27:16.059Z,11.85
2023-04-18T13:29:43.493Z,11.85
2023-04-18T13:32:10.410Z,11.89
2023-04-18T13:34:44.388Z,11.89
2023-04-18T13:37:11.213Z,11.90
2023-04-18T13:39:37.943Z,11.93
2023-04-18T13:42:04.811Z,11.98
2023-04-18T13:44:31.610Z,12.03
2023-04-18T13:46:58.075Z,12.06
2023-04-18T13:49:24.603Z,12.12
2023-04-18T13:51:53.419Z,12.13
2023-04-18T13:54:20.085Z,12.12
2023-04-18T13:56:46.432Z,12.14
2023-04-18T13:59:13.104Z,12.13
2023-04-18T14:01:39.828Z,12.17
2023-04-18T14:04:06.539Z,12.20
2023-04-18T14:06:33.109Z,12.26
2023-04-18T14:08:59.554Z,12.29
2023-04-18T14:11:26.110Z,12.28
2023-04-18T14:13:52.543Z,12.28
2023-04-18T14:16:22.070Z,12.28
2023-04-18T14:18:48.753Z,12.30
2023-04-18T14:21:15.270Z,12.36
2023-04-18T14:23:41.962Z,12.38
2023-04-18T14:26:08.537Z,12.38
2023-04-18T14:28:34.968Z,12.35
2023-04-18T14:31:02.809Z,12.36
2023-04-18T14:33:29.439Z,12.37
2023-04-18T14:35:55.828Z,12.34
2023-04-18T14:38:22.266Z,12.34
2023-04-18T14:40:48.652Z,12.34
2023-04-18T14:43:15.027Z,12.34
2023-04-18T14:45:41.546Z,12.33
2023-04-18T14:48:10.046Z,12.38
2023-04-18T14:50:38.503Z,12.43
2023-04-18T14:53:06.393Z,12.50
2023-04-18T14:55:34.334Z,12.55
2023-04-18T14:58:01.301Z,12.59
2023-04-18T15:00:28.193Z,12.62
2023-04-18T15:02:54.887Z,12.62
2023-04-18T15:05:23.792Z,12.58
2023-04-18T15:07:51.878Z,12.61
2023-04-18T15:10:19.546Z,12.63
2023-04-18T15:12:48.791Z,12.69
2023-04-18T15:15:15.378Z,12.72
2023-04-18T15:17:41.918Z,12.75
2023-04-18T15:20:09.391Z,12.83
2023-04-18T15:22:36.094Z,12.88
2023-04-18T15:25:04.354Z,12.89
2023-04-18T15:27:30.985Z,12.90
2023-04-18T15:29:57.432Z,12.83
2023-04-18T15:32:24.641Z,12.77
2023-04-18T15:34:51.379Z,12.76
2023-04-18T15:37:17.770Z,12.78
2023-04-18T15:39:44.136Z,12.79
2023-04-18T15:42:10.612Z,12.78
2023-04-18T15:44:37.070Z,12.85
2023-04-18T15:47:03.617Z,12.90
2023-04-18T15:49:29.982Z,12.89
2023-04-18T15:51:56.825Z,12.91
2023-04-18T15:54:23.181Z,12.93
2023-04-18T15:56:49.592Z,12.92
2023-04-18T15:59:16.043Z,12.92
2023-04-18T16:01:45.188Z,12.91
2023-04-18T16:04:12.553Z,12.93
2023-04-18T16:06:39.270Z,12.90
2023-04-18T16:09:06.749Z,12.93
2023-04-18T16:11:33.110Z,12.96
2023-04-18T16:13:59.513Z,13.00
2023-04-18T16:16:26.605Z,13.04
2023-04-18T16:18:53.010Z,13.04
2023-04-18T16:21:19.558Z,13.02
2023-04-18T16:23:45.954Z,13.02
2023-04-18T16:26:12.336Z,13.00
2023-04-18T16:28:38.816Z,12.99
2023-04-18T16:31:06.439Z,12.93
2023-04-18T16:33:33.044Z,12.89
2023-04-18T16:36:02.525Z,12.88
2023-04-18T16:38:29.359Z,12.89
2023-04-18T16:40:57.329Z,12.88
2023-04-18T16:43:26.814Z,12.88
2023-04-18T16:45:56.404Z,12.87
2023-04-18T16:48:26.295Z,12.87
2023-04-18T16:50:52.611Z,12.86
2023-04-18T16:53:18.979Z,12.86
2023-04-18T16:55:45.416Z,12.86
2023-04-18T16:58:11.822Z,12.87
2023-04-18T17:00:38.607Z,12.87
2023-04-18T17:03:07.191Z,12.88
2023-04-18T17:05:33.746Z,12.88
2023-04-18T17:08:00.459Z,12.88
2023-04-18T17:10:29.446Z,12.87
2023-04-18T17:12:56.524Z,12.87
2023-04-18T17:15:22.998Z,12.84
2023-04-18T17:17:50.225Z,12.82
2023-04-18T17:20:17.833Z,12.78
2023-04-18T17:22:44.643Z,12.74
2023-04-18T17:25:11.101Z,12.72
2023-04-18T17:27:39.999Z,12.75
2023-04-18T17:30:07.180Z,12.75
2023-04-18T17:32:33.593Z,12.75
2023-04-18T17:35:04.031Z,12.76
2023-04-18T17:37:31.245Z,12.77
2023-04-18T17:39:58.802Z,12.77
2023-04-18T17:42:25.334Z,12.74
2023-04-18T17:44:51.767Z,12.73
2023-04-18T17:47:18.304Z,12.71
2023-04-18T17:49:45.933Z,12.69
2023-04-18T17:52:12.334Z,12.65
2023-04-18T17:54:38.719Z,12.64
2023-04-18T17:57:05.169Z,12.61
2023-04-18T17:59:37.451Z,12.58
2023-04-18T18:02:05.235Z,12.56
2023-04-18T18:04:31.720Z,12.55
2023-04-18T18:06:58.600Z,12.52
2023-04-18T18:09:25.176Z,12.49
2023-04-18T18:11:53.402Z,12.46
2023-04-18T18:14:21.348Z,12.44
2023-04-18T18:16:47.863Z,12.40
2023-04-18T18:19:15.003Z,12.38
2023-04-18T18:21:41.599Z,12.38
2023-04-18T18:24:08.285Z,12.34
2023-04-18T18:26:36.144Z,12.29
2023-04-18T18:29:09.164Z,12.29
2023-04-18T18:31:36.051Z,12.26
2023-04-18T18:34:02.560Z,12.23
2023-04-18T18:36:28.987Z,12.19
2023-04-18T18:38:55.612Z,12.17
2023-04-18T18:41:24.552Z,12.14
2023-04-18T18:43:51.970Z,12.15
2023-04-18T18:46:18.836Z,12.12
2023-04-18T18:48:45.355Z,12.09
2023-04-18T18:51:11.758Z,12.05
2023-04-18T18:53:40.317Z,12.04
2023-04-18T18:56:08.641Z,11.96
2023-04-18T18:58:35.641Z,11.94
2023-04-18T19:01:03.313Z,11.95
2023-04-18T19:03:30.340Z,11.96
2023-04-18T19:05:56.922Z,11.98
2023-04-18T19:08:23.354Z,11.99
2023-04-18T19:10:50.528Z,12.00
2023-04-18T19:13:22.442Z,11.95
2023-04-18T19:15:48.900Z,11.94
2023-04-18T19:18:15.342Z,11.90
2023-04-18T19:20:41.796Z,11.87
2023-04-18T19:23:08.136Z,11.84
2023-04-18T19:25:34.533Z,11.77
2023-04-18T19:28:00.900Z,11.76
2023-04-18T19:30:27.358Z,11.68
2023-04-18T19:32:53.814Z,11.65
2023-04-18T19:35:20.421Z,11.61
2023-04-18T19:37:46.898Z,11.60
2023-04-18T19:40:14.000Z,11.55
2023-04-18T19:42:40.788Z,11.51
2023-04-18T19:45:07.627Z,11.49
2023-04-18T19:47:34.209Z,11.46
2023-04-18T19:50:01.179Z,11.40
2023-04-18T19:52:27.677Z,11.39
2023-04-18T19:54:55.213Z,11.38
2023-04-18T19:57:21.985Z,11.37
2023-04-18T19:59:48.408Z,11.34
2023-04-18T20:02:15.169Z,11.33
2023-04-18T20:04:42.121Z,11.31
2023-04-18T20:07:08.726Z,11.28
2023-04-18T20:09:35.286Z,11.26
2023-04-18T20:12:01.858Z,11.28
2023-04-18T20:14:28.885Z,11.25
2023-04-18T20:16:56.220Z,11.20
2023-04-18T20:19:25.629Z,11.19
2023-04-18T20:21:52.567Z,11.14
2023-04-18T20:24:21.032Z,11.07
2023-04-18T20:26:47.791Z,11.03
2023-04-18T20:29:14.313Z,10.99
2023-04-18T20:31:42.425Z,10.99
2023-04-18T20:34:09.868Z,10.98
2023-04-18T20:36:41.277Z,10.96
2023-04-18T20:39:08.795Z,10.97
2023-04-18T20:41:36.767Z,10.93
2023-04-18T20:44:05.199Z,10.89
2023-04-18T20:46:32.559Z,10.87
2023-04-18T20:48:59.107Z,10.85
2023-04-18T20:51:26.849Z,10.85
2023-04-18T20:53:53.276Z,10.81
2023-04-18T20:56:20.049Z,10.75
2023-04-18T20:58:46.500Z,10.73
2023-04-18T21:01:13.015Z,10.75
2023-04-18T21:03:39.580Z,10.73
2023-04-18T21:06:06.186Z,10.65
2023-04-18T21:08:35.022Z,10.63
2023-04-18T21:11:01.554Z,10.64
2023-04-18T21:13:27.933Z,10.64
2023-04-18T21:15:56.923Z,10.62
2023-04-18T21:18:23.799Z,10.61
2023-04-18T21:20:50.531Z,10.57
2023-04-18T21:23:16.973Z,10.58
2023-04-18T21:25:43.304Z,10.54
2023-04-18T21:28:09.811Z,10.55
2023-04-18T21:30:36.564Z,10.50
2023-04-18T21:33:03.529Z,10.52
2023-04-18T21:35:30.103Z,10.49
2023-04-18T21:37:56.886Z,10.46
2023-04-18T21:40:24.282Z,10.44
2023-04-18T21:42:53.223Z,10.43
2023-04-18T21:45:19.610Z,10.47
2023-04-18T21:47:46.718Z,10.43
2023-04-18T21:50:13.190Z,10.38
2023-04-18T21:52:39.620Z,10.38
2023-04-18T21:55:06.240Z,10.35
2023-04-18T21:57:32.666Z,10.32
2023-04-18T21:59:59.021Z,10.29
2023-04-18T22:02:26.659Z,10.25
2023-04-18T22:04:53.221Z,10.21
2023-04-18T22:07:19.709Z,10.16
2023-04-18T22:09:46.417Z,10.17
2023-04-18T22:12:14.105Z,10.24
2023-04-18T22:14:41.838Z,10.15
2023-04-18T22:17:09.198Z,10.14
2023-04-18T22:19:35.695Z,10.14
2023-04-18T22:22:02.173Z,10.15
2023-04-18T22:24:28.515Z,10.07
2023-04-18T22:26:55.574Z,10.05
2023-04-18T22:29:21.928Z,10.05
2023-04-18T22:31:48.356Z,10.05
2023-04-18T22:34:14.873Z,10.00
2023-04-18T22:36:42.651Z,10.07
2023-04-18T22:39:09.099Z,10.12
2023-04-18T22:41:35.511Z,10.04
2023-04-18T22:44:01.979Z,9.98
2023-04-18T22:46:28.550Z,10.04
2023-04-18T22:48:55.102Z,9.99
2023-04-18T22:51:23.420Z,9.96
2023-04-18T22:53:49.899Z,9.90
2023-04-18T22:56:16.359Z,9.87
2023-04-18T22:58:42.774Z,9.84
2023-04-18T23:01:09.135Z,9.79
2023-04-18T23:03:35.774Z,9.82
2023-04-18T23:06:02.253Z,9.88
2023-04-18T23:08:28.596Z,9.89
2023-04-18T23:10:55.031Z,9.87
2023-04-18T23:13:21.552Z,9.87
2023-04-18T23:15:47.993Z,9.87
2023-04-18T23:18:14.610Z,9.83
2023-04-18T23:20:40.999Z,9.81
2023-04-18T23:23:07.402Z,9.80
2023-04-18T23:25:33.925Z,9.73
2023-04-18T23:28:00.426Z,9.71
2023-04-18T23:30:26.837Z,9.74
2023-04-18T23:32:53.845Z,9.68
2023-04-18T23:35:20.466Z,9.74
2023-04-18T23:37:46.894Z,9.75
2023-04-18T23:40:13.351Z,9.77
2023-04-18T23:42:39.717Z,9.77
2023-04-18T23:45:06.461Z,9.80
2023-04-18T23:47:32.904Z,9.77
2023-04-18T23:49:59.335Z,9.82
2023-04-18T23:52:25.759Z,9.75
2023-04-18T23:54:52.247Z,9.70
2023-04-18T23:57:18.634Z,9.62
2023-04-18T23:59:44.956Z,9.66
